createdAt,value
2022-11-16T00:02:03.425Z,11.43
2022-11-16T00:04:31.255Z,9.23
2022-11-16T00:06:58.897Z,9.95
2022-11-16T00:09:27.180Z,10.20
2022-11-16T00:11:58.378Z,10.55
2022-11-16T00:14:28.447Z,13.23
2022-11-16T00:16:56.620Z,18.23
2022-11-16T00:19:27.729Z,18.83
2022-11-16T00:21:58.835Z,21.50
2022-11-16T00:24:26.465Z,19.88
2022-11-16T00:26:56.035Z,23.63
2022-11-16T00:29:26.468Z,27.88
2022-11-16T00:31:54.772Z,28.60
2022-11-16T00:34:23.216Z,26.48
2022-11-16T00:36:52.603Z,23.60
2022-11-16T00:39:20.453Z,20.42
2022-11-16T00:41:48.651Z,20.80
2022-11-16T00:44:16.867Z,21.70
2022-11-16T00:46:44.563Z,17.55
2022-11-16T00:49:12.148Z,14.55
2022-11-16T00:51:42.174Z,13.60
2022-11-16T00:54:11.153Z,12.95
2022-11-16T00:56:39.159Z,13.27
2022-11-16T00:59:21.300Z,11.90
2022-11-16T01:01:49.077Z,11.10
2022-11-16T01:04:16.929Z,14.00
2022-11-16T01:06:44.694Z,11.57
2022-11-16T01:09:13.719Z,12.13
2022-11-16T01:11:41.297Z,11.93
2022-11-16T01:14:09.809Z,12.20
2022-11-16T01:16:39.079Z,11.65
2022-11-16T01:19:07.566Z,11.32
2022-11-16T01:21:35.947Z,11.93
2022-11-16T01:24:03.905Z,11.27
2022-11-16T01:26:32.970Z,13.45
2022-11-16T01:29:00.952Z,11.52
2022-11-16T01:31:28.819Z,12.55
2022-11-16T01:33:56.368Z,12.25
2022-11-16T01:36:24.205Z,12.25
2022-11-16T01:38:51.736Z,12.60
2022-11-16T01:41:21.610Z,11.48
2022-11-16T01:43:53.695Z,12.32
2022-11-16T01:46:22.019Z,11.73
2022-11-16T01:48:54.224Z,12.00
2022-11-16T01:53:50.934Z,10.70
2022-11-16T01:56:18.851Z,11.05
2022-11-16T01:58:46.856Z,9.80
2022-11-16T02:01:15.985Z,10.95
2022-11-16T02:03:43.804Z,10.30
2022-11-16T02:06:30.659Z,10.98
2022-11-16T02:09:12.314Z,10.73
2022-11-16T02:11:54.718Z,9.98
2022-11-16T02:14:37.965Z,11.15
2022-11-16T02:17:16.608Z,10.13
2022-11-16T02:20:08.156Z,11.50
2022-11-16T02:22:53.499Z,10.13
2022-11-16T02:25:30.772Z,10.20
2022-11-16T02:28:22.524Z,10.68
2022-11-16T02:30:56.080Z,10.20
2022-11-16T02:33:30.642Z,10.73
2022-11-16T02:36:00.873Z,10.23
2022-11-16T02:38:32.431Z,9.60
2022-11-16T02:41:05.215Z,10.35
2022-11-16T02:43:38.625Z,10.73
2022-11-16T02:46:12.480Z,10.95
2022-11-16T02:48:46.808Z,10.95
2022-11-16T02:51:14.990Z,12.18
2022-11-16T02:53:57.894Z,12.45
2022-11-16T02:56:27.065Z,11.43
2022-11-16T02:58:57.782Z,12.60
2022-11-16T03:01:35.261Z,11.90
2022-11-16T03:04:08.384Z,17.50
2022-11-16T03:06:39.399Z,19.50
2022-11-16T03:09:11.613Z,18.38
2022-11-16T03:11:44.625Z,19.55
2022-11-16T03:14:23.042Z,19.40
2022-11-16T03:16:56.721Z,19.15
2022-11-16T03:19:29.541Z,16.75
2022-11-16T03:22:04.035Z,15.32
2022-11-16T03:24:32.481Z,13.70
2022-11-16T03:27:06.416Z,14.10
2022-11-16T03:29:40.547Z,15.82
2022-11-16T03:32:15.773Z,13.85
2022-11-16T03:34:54.689Z,15.60
2022-11-16T03:37:24.501Z,13.82
2022-11-16T03:39:53.355Z,14.95
2022-11-16T03:42:23.613Z,12.77
2022-11-16T03:44:53.708Z,13.07
2022-11-16T03:47:23.161Z,12.60
2022-11-16T03:49:50.827Z,13.63
2022-11-16T03:52:19.093Z,13.40
2022-11-16T03:54:46.706Z,11.55
2022-11-16T03:57:14.295Z,12.07
2022-11-16T03:59:43.906Z,11.75
2022-11-16T04:02:12.034Z,10.85
2022-11-16T04:04:42.981Z,11.35
2022-11-16T04:07:10.844Z,11.32
2022-11-16T04:09:39.914Z,11.40
2022-11-16T04:12:08.525Z,10.50
2022-11-16T04:14:36.239Z,9.98
2022-11-16T04:17:03.777Z,10.43
2022-11-16T04:19:31.414Z,9.88
2022-11-16T04:22:03.338Z,11.52
2022-11-16T04:24:36.793Z,10.55
2022-11-16T04:27:08.164Z,10.90
2022-11-16T04:29:36.374Z,10.05
2022-11-16T04:32:04.782Z,11.70
2022-11-16T04:34:32.980Z,11.18
2022-11-16T04:37:02.149Z,10.52
2022-11-16T04:39:29.759Z,11.68
2022-11-16T04:41:57.540Z,10.95
2022-11-16T04:44:29.867Z,16.38
2022-11-16T04:46:57.824Z,16.02
2022-11-16T04:49:25.348Z,18.00
2022-11-16T04:51:53.052Z,12.93
2022-11-16T04:54:22.414Z,12.55
2022-11-16T04:56:50.547Z,13.50
2022-11-16T04:59:18.122Z,15.68
2022-11-16T05:01:46.325Z,13.82
2022-11-16T05:04:14.033Z,17.70
2022-11-16T05:06:41.707Z,18.90
2022-11-16T05:09:09.353Z,15.98
2022-11-16T05:11:38.347Z,18.60
2022-11-16T05:14:11.304Z,14.15
2022-11-16T05:16:38.937Z,16.75
2022-11-16T05:19:07.023Z,19.17
2022-11-16T05:21:38.389Z,22.92
2022-11-16T05:24:06.448Z,16.77
2022-11-16T05:26:34.038Z,13.98
2022-11-16T05:29:03.508Z,13.70
2022-11-16T05:31:35.117Z,12.70
2022-11-16T05:34:06.928Z,13.25
2022-11-16T05:36:35.740Z,12.57
2022-11-16T05:39:04.522Z,12.02
2022-11-16T05:41:32.550Z,12.93
2022-11-16T05:44:00.125Z,11.18
2022-11-16T05:46:31.605Z,14.05
2022-11-16T05:48:59.767Z,14.07
2022-11-16T05:51:27.314Z,12.48
2022-11-16T05:53:56.781Z,14.20
2022-11-16T05:56:24.574Z,14.07
2022-11-16T05:58:52.236Z,14.00
2022-11-16T06:01:19.947Z,12.80
2022-11-16T06:03:49.125Z,13.32
2022-11-16T06:06:17.314Z,12.98
2022-11-16T06:08:44.860Z,16.88
2022-11-16T06:11:13.626Z,16.02
2022-11-16T06:13:42.235Z,13.88
2022-11-16T06:16:11.449Z,15.23
2022-11-16T06:18:40.122Z,14.70
2022-11-16T06:21:09.859Z,14.63
2022-11-16T06:23:38.012Z,14.15
2022-11-16T06:26:06.803Z,15.40
2022-11-16T06:28:35.372Z,17.45
2022-11-16T06:31:04.886Z,15.75
2022-11-16T06:33:34.056Z,15.48
2022-11-16T06:36:03.536Z,15.02
2022-11-16T06:38:33.045Z,16.40
2022-11-16T06:41:01.046Z,15.70
2022-11-16T06:43:28.855Z,14.23
2022-11-16T06:45:57.845Z,13.48
2022-11-16T06:48:25.994Z,14.07
2022-11-16T06:50:53.738Z,12.63
2022-11-16T06:53:27.488Z,16.20
2022-11-16T06:56:01.282Z,19.02
2022-11-16T06:58:29.535Z,15.38
2022-11-16T07:00:57.156Z,13.18
2022-11-16T07:03:25.037Z,14.68
2022-11-16T07:05:52.630Z,14.73
2022-11-16T07:08:20.174Z,14.10
2022-11-16T07:10:47.863Z,12.65
2022-11-16T07:13:17.229Z,11.48
2022-11-16T07:15:44.742Z,10.25
2022-11-16T07:18:12.743Z,10.10
2022-11-16T07:20:40.847Z,10.50
2022-11-16T07:23:13.811Z,9.93
2022-11-16T07:25:42.026Z,9.98
2022-11-16T07:28:10.001Z,9.75
2022-11-16T07:30:39.172Z,9.38
2022-11-16T07:33:07.032Z,8.73
2022-11-16T07:35:36.469Z,10.25
2022-11-16T07:38:04.259Z,9.55
2022-11-16T07:40:32.164Z,10.27
2022-11-16T07:42:59.911Z,9.20
2022-11-16T07:45:27.539Z,9.35
2022-11-16T07:47:56.917Z,8.75
2022-11-16T07:50:24.843Z,10.45
2022-11-16T07:52:54.614Z,10.02
2022-11-16T07:55:22.822Z,9.85
2022-11-16T07:57:53.470Z,10.60
2022-11-16T08:00:21.672Z,10.00
2022-11-16T08:02:49.676Z,10.40
2022-11-16T08:05:18.692Z,9.85
2022-11-16T08:07:47.482Z,11.55
2022-11-16T08:10:15.576Z,12.27
2022-11-16T08:12:43.141Z,12.30
2022-11-16T08:15:11.313Z,11.63
2022-11-16T08:17:40.578Z,12.35
2022-11-16T08:20:09.941Z,11.80
2022-11-16T08:22:39.356Z,12.95
2022-11-16T08:25:08.082Z,11.85
2022-11-16T08:27:36.098Z,12.95
2022-11-16T08:30:04.967Z,13.70
2022-11-16T08:32:33.462Z,13.20
2022-11-16T08:35:01.100Z,14.20
2022-11-16T08:37:29.039Z,14.63
2022-11-16T08:39:58.354Z,12.60
2022-11-16T08:42:26.052Z,12.63
2022-11-16T08:44:53.594Z,14.27
2022-11-16T08:47:21.272Z,12.95
2022-11-16T08:53:29.626Z,13.52
2022-11-16T08:56:04.062Z,14.20
2022-11-16T08:58:32.163Z,14.07
2022-11-16T09:01:07.952Z,13.27
2022-11-16T09:03:37.159Z,13.60
2022-11-16T09:06:05.885Z,14.02
2022-11-16T09:08:37.034Z,14.00
2022-11-16T09:11:08.478Z,14.15
2022-11-16T09:13:39.572Z,14.25
2022-11-16T09:16:07.808Z,14.38
2022-11-16T09:18:37.065Z,14.50
2022-11-16T09:21:05.218Z,15.20
2022-11-16T09:23:33.053Z,15.07
2022-11-16T09:26:02.296Z,14.90
2022-11-16T09:28:32.743Z,15.30
2022-11-16T09:31:02.033Z,17.90
2022-11-16T09:33:30.803Z,17.02
2022-11-16T09:36:01.597Z,16.75
2022-11-16T09:38:40.602Z,15.60
2022-11-16T09:41:37.458Z,17.60
2022-11-16T09:44:17.404Z,18.00
2022-11-16T09:46:49.273Z,18.02
2022-11-16T09:49:21.222Z,19.95
2022-11-16T09:51:55.896Z,17.20
2022-11-16T09:54:27.604Z,16.77
2022-11-16T09:57:00.586Z,16.17
2022-11-16T09:59:37.030Z,17.85
2022-11-16T10:02:18.981Z,18.00
2022-11-16T10:07:29.191Z,17.02
2022-11-16T10:09:57.284Z,17.48
2022-11-16T10:12:30.664Z,18.08
2022-11-16T10:15:22.171Z,18.20
2022-11-16T10:20:55.162Z,16.98
2022-11-16T10:23:36.928Z,18.60
2022-11-16T10:26:16.197Z,18.73
2022-11-16T10:29:07.532Z,18.80
2022-11-16T10:31:51.608Z,17.17
2022-11-16T10:34:24.751Z,18.63
2022-11-16T10:36:56.004Z,17.23
2022-11-16T10:39:25.756Z,19.27
2022-11-16T10:41:53.449Z,17.55
2022-11-16T10:44:32.106Z,18.92
2022-11-16T10:47:04.467Z,18.95
2022-11-16T10:49:40.222Z,17.17
2022-11-16T10:52:07.849Z,19.05
2022-11-16T10:54:38.900Z,18.67
2022-11-16T10:57:10.706Z,19.63
2022-11-16T10:59:42.092Z,19.30
2022-11-16T11:02:31.343Z,18.95
2022-11-16T11:05:14.284Z,18.50
2022-11-16T11:07:46.900Z,19.92
2022-11-16T11:10:29.717Z,18.95
2022-11-16T11:13:26.123Z,19.00
2022-11-16T11:16:14.425Z,19.40
2022-11-16T11:18:45.350Z,20.80
2022-11-16T11:21:17.625Z,21.13
2022-11-16T11:23:47.822Z,24.67
2022-11-16T11:26:35.906Z,20.75
2022-11-16T11:29:20.697Z,20.38
2022-11-16T11:31:51.264Z,21.48
2022-11-16T11:34:23.791Z,22.40
2022-11-16T11:36:55.219Z,20.77
2022-11-16T11:39:34.803Z,20.45
2022-11-16T11:42:06.197Z,20.50
2022-11-16T11:50:24.902Z,21.50
2022-11-16T11:53:02.799Z,19.48
2022-11-16T11:55:31.298Z,20.33
2022-11-16T11:58:00.340Z,18.45
2022-11-16T12:00:38.132Z,17.52
2022-11-16T12:03:44.780Z,17.60
2022-11-16T12:06:22.260Z,16.45
2022-11-16T12:09:09.938Z,17.27
2022-11-16T12:11:51.217Z,15.90
2022-11-16T12:14:34.103Z,15.25
2022-11-16T12:17:11.261Z,15.18
2022-11-16T12:20:02.077Z,17.42
2022-11-16T12:22:54.074Z,15.80
2022-11-16T12:25:30.859Z,14.23
2022-11-16T12:28:13.950Z,14.20
2022-11-16T12:30:55.099Z,14.40
2022-11-16T12:36:02.093Z,14.70
2022-11-16T12:38:40.891Z,14.20
2022-11-16T12:41:31.777Z,16.05
2022-11-16T12:44:01.108Z,15.25
2022-11-16T12:46:40.891Z,15.38
2022-11-16T12:49:41.289Z,14.15
2022-11-16T12:52:24.043Z,14.00
2022-11-16T12:55:26.710Z,13.88
2022-11-16T12:58:14.467Z,13.20
2022-11-16T13:00:56.988Z,11.65
2022-11-16T13:03:33.543Z,13.63
2022-11-16T13:06:06.195Z,14.25
2022-11-16T13:08:46.605Z,13.50
2022-11-16T13:11:20.986Z,14.15
2022-11-16T13:13:58.009Z,17.65
2022-11-16T13:16:27.486Z,17.13
2022-11-16T13:18:55.895Z,15.43
2022-11-16T13:21:50.445Z,13.65
2022-11-16T13:24:29.673Z,15.70
2022-11-16T13:27:12.472Z,16.25
2022-11-16T13:29:45.927Z,13.93
2022-11-16T13:32:19.960Z,15.82
2022-11-16T13:34:50.040Z,14.63
2022-11-16T13:37:46.538Z,14.35
2022-11-16T13:40:28.662Z,14.25
2022-11-16T13:43:05.948Z,16.80
2022-11-16T13:45:40.143Z,14.60
2022-11-16T13:48:18.034Z,15.93
2022-11-16T13:50:51.979Z,19.08
2022-11-16T13:56:20.907Z,22.98
2022-11-16T13:58:53.400Z,18.65
2022-11-16T14:01:21.468Z,16.00
2022-11-16T14:03:51.288Z,20.05
2022-11-16T14:06:59.540Z,24.77
2022-11-16T14:09:45.064Z,35.53
2022-11-16T14:12:49.749Z,22.13
2022-11-16T14:15:20.175Z,19.33
2022-11-16T14:17:53.283Z,38.10
2022-11-16T14:20:43.020Z,35.60
2022-11-16T14:23:30.868Z,21.55
2022-11-16T14:26:12.216Z,22.88
2022-11-16T14:31:23.818Z,37.03
2022-11-16T14:33:54.323Z,38.45
2022-11-16T14:36:37.731Z,25.55
2022-11-16T14:39:16.984Z,34.33
2022-11-16T14:41:46.564Z,24.98
2022-11-16T14:44:18.935Z,21.73
2022-11-16T14:46:48.596Z,32.17
2022-11-16T14:49:18.036Z,26.27
2022-11-16T14:51:49.866Z,24.95
2022-11-16T14:56:57.123Z,21.40
2022-11-16T14:59:25.559Z,20.73
2022-11-16T15:01:54.705Z,21.30
2022-11-16T15:04:25.598Z,21.42
2022-11-16T15:06:57.534Z,22.83
2022-11-16T15:09:28.983Z,24.13
2022-11-16T15:12:00.904Z,26.45
2022-11-16T15:14:32.924Z,28.40
2022-11-16T15:17:01.978Z,24.15
2022-11-16T15:19:30.466Z,23.02
2022-11-16T15:21:59.863Z,20.10
2022-11-16T15:24:31.704Z,20.52
2022-11-16T15:27:10.273Z,21.63
2022-11-16T15:29:39.051Z,21.55
2022-11-16T15:32:16.089Z,21.95
2022-11-16T15:34:47.865Z,20.10
2022-11-16T15:39:54.065Z,27.52
2022-11-16T15:42:23.843Z,28.70
2022-11-16T15:44:52.710Z,32.03
2022-11-16T15:47:23.152Z,33.40
2022-11-16T15:49:51.272Z,26.23
2022-11-16T15:52:44.754Z,21.05
2022-11-16T15:55:23.506Z,19.73
2022-11-16T15:57:59.993Z,19.65
2022-11-16T16:00:29.020Z,20.70
2022-11-16T16:03:03.921Z,26.98
2022-11-16T16:05:36.415Z,22.30
2022-11-16T16:08:05.594Z,33.55
2022-11-16T16:10:33.328Z,38.20
2022-11-16T16:13:02.021Z,34.30
2022-11-16T16:15:31.662Z,25.58
2022-11-16T16:18:01.973Z,24.67
2022-11-16T16:20:32.243Z,23.20
2022-11-16T16:23:07.877Z,19.13
2022-11-16T16:25:36.855Z,22.77
2022-11-16T16:28:04.988Z,24.10
2022-11-16T16:30:33.512Z,21.40
2022-11-16T16:33:02.668Z,17.77
2022-11-16T16:35:30.352Z,17.58
2022-11-16T16:37:59.542Z,19.33
2022-11-16T16:40:27.876Z,21.77
2022-11-16T16:42:55.759Z,32.03
2022-11-16T16:45:36.231Z,44.10
2022-11-16T16:48:06.064Z,37.85
2022-11-16T16:50:33.934Z,26.83
2022-11-16T16:53:01.857Z,21.13
2022-11-16T16:55:32.838Z,20.88
2022-11-16T16:58:03.978Z,20.70
2022-11-16T17:00:32.193Z,21.73
2022-11-16T17:03:21.037Z,20.50
2022-11-16T17:05:49.679Z,20.02
2022-11-16T17:08:19.143Z,21.83
2022-11-16T17:10:50.351Z,19.58
2022-11-16T17:13:17.897Z,23.30
2022-11-16T17:15:46.867Z,21.67
2022-11-16T17:18:18.488Z,21.40
2022-11-16T17:20:47.783Z,20.55
2022-11-16T17:23:15.486Z,22.83
2022-11-16T17:25:45.345Z,20.88
2022-11-16T17:28:13.380Z,28.25
2022-11-16T17:30:40.982Z,25.83
2022-11-16T17:33:08.662Z,24.38
2022-11-16T17:35:36.524Z,23.95
2022-11-16T17:38:05.797Z,23.67
2022-11-16T17:40:33.507Z,24.08
2022-11-16T17:43:01.391Z,24.58
2022-11-16T17:45:29.075Z,33.15
2022-11-16T17:47:56.912Z,49.75
2022-11-16T17:50:24.691Z,38.33
2022-11-16T17:52:52.434Z,30.98
2022-11-16T17:55:21.576Z,31.52
2022-11-16T17:57:49.104Z,30.55
2022-11-16T18:00:18.078Z,29.58
2022-11-16T18:02:45.824Z,37.22
2022-11-16T18:05:13.812Z,45.45
2022-11-16T18:07:41.856Z,44.47
2022-11-16T18:10:12.675Z,32.58
2022-11-16T18:12:44.310Z,28.63
2022-11-16T18:15:28.015Z,26.38
2022-11-16T18:17:56.901Z,40.88
2022-11-16T18:20:24.665Z,67.72
2022-11-16T18:22:52.378Z,74.35
2022-11-16T18:25:20.101Z,51.80
2022-11-16T18:27:52.583Z,45.63
2022-11-16T18:30:20.451Z,59.33
2022-11-16T18:32:48.222Z,42.67
2022-11-16T18:35:16.169Z,28.65
2022-11-16T18:37:44.097Z,42.88
2022-11-16T18:40:12.389Z,47.35
2022-11-16T18:42:42.071Z,51.72
2022-11-16T18:45:11.191Z,40.60
2022-11-16T18:47:39.087Z,32.47
2022-11-16T18:50:08.916Z,29.02
2022-11-16T18:52:40.717Z,23.02
2022-11-16T18:55:09.343Z,29.20
2022-11-16T18:57:38.337Z,31.75
2022-11-16T19:00:07.197Z,28.20
2022-11-16T19:02:36.240Z,25.40
2022-11-16T19:05:04.492Z,25.42
2022-11-16T19:07:34.520Z,26.90
2022-11-16T19:10:02.215Z,22.38
2022-11-16T19:12:31.028Z,20.88
2022-11-16T19:14:58.640Z,23.73
2022-11-16T19:17:30.348Z,24.17
2022-11-16T19:19:59.606Z,23.73
2022-11-16T19:22:27.337Z,26.02
2022-11-16T19:24:55.153Z,26.20
2022-11-16T19:27:25.100Z,26.88
2022-11-16T19:29:52.673Z,25.48
2022-11-16T19:32:20.968Z,23.42
2022-11-16T19:34:48.545Z,24.65
2022-11-16T19:37:19.933Z,22.63
2022-11-16T19:39:48.229Z,105.35
2022-11-16T19:42:15.806Z,39.95
2022-11-16T19:44:43.837Z,44.75
2022-11-16T19:47:13.729Z,37.65
2022-11-16T19:49:41.472Z,34.40
2022-11-16T19:52:09.049Z,25.23
2022-11-16T19:54:38.539Z,23.00
2022-11-16T19:57:06.472Z,28.85
2022-11-16T19:59:34.205Z,46.00
2022-11-16T20:02:01.841Z,50.78
2022-11-16T20:04:30.829Z,39.63
2022-11-16T20:06:58.715Z,69.00
2022-11-16T20:09:29.605Z,33.03
2022-11-16T20:11:59.139Z,34.25
2022-11-16T20:14:26.927Z,25.17
2022-11-16T20:16:54.684Z,34.97
2022-11-16T20:19:22.460Z,60.85
2022-11-16T20:21:50.338Z,50.80
2022-11-16T20:24:18.348Z,33.17
2022-11-16T20:26:47.918Z,28.80
2022-11-16T20:29:18.740Z,24.02
2022-11-16T20:31:47.051Z,22.58
2022-11-16T20:34:16.882Z,24.40
2022-11-16T20:36:46.460Z,23.75
2022-11-16T20:39:17.036Z,39.80
2022-11-16T20:41:45.201Z,41.33
2022-11-16T20:44:17.426Z,35.33
2022-11-16T20:46:45.405Z,35.35
2022-11-16T20:49:13.464Z,24.83
2022-11-16T20:51:41.226Z,26.40
2022-11-16T20:54:08.988Z,25.38
2022-11-16T20:56:36.556Z,22.08
2022-11-16T20:59:04.757Z,24.02
2022-11-16T21:01:34.181Z,23.00
2022-11-16T21:04:05.093Z,29.30
2022-11-16T21:06:33.498Z,30.25
2022-11-16T21:09:01.797Z,29.15
2022-11-16T21:11:31.681Z,51.78
2022-11-16T21:13:59.902Z,29.17
2022-11-16T21:16:28.033Z,34.88
2022-11-16T21:18:57.023Z,38.88
2022-11-16T21:21:25.525Z,41.13
2022-11-16T21:23:53.549Z,35.17
2022-11-16T21:26:22.773Z,24.27
2022-11-16T21:28:50.642Z,33.83
2022-11-16T21:31:20.015Z,50.22
2022-11-16T21:33:48.222Z,38.13
2022-11-16T21:36:18.990Z,33.30
2022-11-16T21:38:47.213Z,43.08
2022-11-16T21:41:16.242Z,27.20
2022-11-16T21:43:44.406Z,25.83
2022-11-16T21:46:13.550Z,22.35
2022-11-16T21:48:42.810Z,23.77
2022-11-16T21:51:12.381Z,24.65
2022-11-16T21:53:42.217Z,24.02
2022-11-16T21:56:14.508Z,22.15
2022-11-16T21:58:42.817Z,25.88
2022-11-16T22:01:12.079Z,24.38
2022-11-16T22:03:39.969Z,24.00
2022-11-16T22:06:11.845Z,25.15
2022-11-16T22:08:41.560Z,24.13
2022-11-16T22:11:10.370Z,22.85
2022-11-16T22:13:39.064Z,24.00
2022-11-16T22:16:08.700Z,23.70
2022-11-16T22:18:37.893Z,23.80
2022-11-16T22:21:06.171Z,24.05
2022-11-16T22:23:34.631Z,21.98
2022-11-16T22:26:05.859Z,23.60
2022-11-16T22:28:35.120Z,22.63
2022-11-16T22:31:03.760Z,26.40
2022-11-16T22:33:32.260Z,26.40
2022-11-16T22:36:00.228Z,23.67
2022-11-16T22:38:27.972Z,23.80
2022-11-16T22:40:56.791Z,25.02
2022-11-16T22:43:28.382Z,23.92
2022-11-16T22:45:59.636Z,23.75
2022-11-16T22:48:31.723Z,22.65
2022-11-16T22:53:35.512Z,24.90
2022-11-16T22:56:05.671Z,23.33
2022-11-16T22:58:35.238Z,22.85
2022-11-16T23:01:03.325Z,23.50
2022-11-16T23:03:31.401Z,21.42
2022-11-16T23:05:59.622Z,23.80
2022-11-16T23:08:27.797Z,24.23
2022-11-16T23:10:59.699Z,22.58
2022-11-16T23:13:27.463Z,22.95
2022-11-16T23:15:56.661Z,22.30
2022-11-16T23:18:24.268Z,23.25
2022-11-16T23:20:51.837Z,23.77
2022-11-16T23:23:20.241Z,24.45
2022-11-16T23:25:47.864Z,23.38
2022-11-16T23:28:17.935Z,23.70
2022-11-16T23:30:45.806Z,24.48
2022-11-16T23:33:14.940Z,26.15
2022-11-16T23:35:42.678Z,25.25
2022-11-16T23:38:10.412Z,27.48
2022-11-16T23:40:39.709Z,24.52
2022-11-16T23:43:10.667Z,26.63
2022-11-16T23:45:38.491Z,25.33
2022-11-16T23:48:07.627Z,26.52
2022-11-16T23:50:39.488Z,27.45
2022-11-16T23:53:08.313Z,24.15
2022-11-16T23:55:38.099Z,24.58
2022-11-16T23:58:06.585Z,26.63
